sensor_id;sensor_type;location;lat;lon;timestamp;temperature;humidity
66035;HTU21D;52805;51.074;5.842;2023-05-10T00:00:33;14.74;118.99
66035;HTU21D;52805;51.074;5.842;2023-05-10T00:02:59;14.75;118.99
66035;HTU21D;52805;51.074;5.842;2023-05-10T00:05:25;14.74;118.99
66035;HTU21D;52805;51.074;5.842;2023-05-10T00:07:51;14.72;118.99
66035;HTU21D;52805;51.074;5.842;2023-05-10T00:10:16;14.72;118.99
66035;HTU21D;52805;51.074;5.842;2023-05-10T00:12:42;14.69;118.99
66035;HTU21D;52805;51.074;5.842;2023-05-10T00:15:09;14.65;118.99
66035;HTU21D;52805;51.074;5.842;2023-05-10T00:17:34;14.60;118.99
66035;HTU21D;52805;51.074;5.842;2023-05-10T00:20:00;14.56;118.99
66035;HTU21D;52805;51.074;5.842;2023-05-10T00:22:26;14.54;118.99
66035;HTU21D;52805;51.074;5.842;2023-05-10T00:24:51;14.52;118.99
66035;HTU21D;52805;51.074;5.842;2023-05-10T00:27:17;14.48;118.99
66035;HTU21D;52805;51.074;5.842;2023-05-10T00:29:43;14.47;118.99
66035;HTU21D;52805;51.074;5.842;2023-05-10T00:32:08;14.44;118.99
66035;HTU21D;52805;51.074;5.842;2023-05-10T00:34:34;14.44;118.99
66035;HTU21D;52805;51.074;5.842;2023-05-10T00:37:00;14.44;118.99
66035;HTU21D;52805;51.074;5.842;2023-05-10T00:39:26;14.43;118.99
66035;HTU21D;52805;51.074;5.842;2023-05-10T00:41:53;14.42;118.99
66035;HTU21D;52805;51.074;5.842;2023-05-10T00:44:20;14.44;118.99
66035;HTU21D;52805;51.074;5.842;2023-05-10T00:46:46;14.47;118.99
66035;HTU21D;52805;51.074;5.842;2023-05-10T00:49:13;14.49;118.99
66035;HTU21D;52805;51.074;5.842;2023-05-10T00:51:39;14.49;118.99
66035;HTU21D;52805;51.074;5.842;2023-05-10T00:54:05;14.51;118.99
66035;HTU21D;52805;51.074;5.842;2023-05-10T00:56:31;14.53;118.99
66035;HTU21D;52805;51.074;5.842;2023-05-10T00:58:57;14.55;118.99
66035;HTU21D;52805;51.074;5.842;2023-05-10T01:01:23;14.56;118.99
66035;HTU21D;52805;51.074;5.842;2023-05-10T01:03:51;14.56;118.99
66035;HTU21D;52805;51.074;5.842;2023-05-10T01:06:16;14.56;118.99
66035;HTU21D;52805;51.074;5.842;2023-05-10T01:08:42;14.58;118.99
66035;HTU21D;52805;51.074;5.842;2023-05-10T01:11:08;14.60;118.99
66035;HTU21D;52805;51.074;5.842;2023-05-10T01:13:36;14.63;118.99
66035;HTU21D;52805;51.074;5.842;2023-05-10T01:16:04;14.63;118.99
66035;HTU21D;52805;51.074;5.842;2023-05-10T01:18:36;14.58;118.99
66035;HTU21D;52805;51.074;5.842;2023-05-10T01:21:21;14.57;118.99
66035;HTU21D;52805;51.074;5.842;2023-05-10T01:37:59;14.52;118.99
66035;HTU21D;52805;51.074;5.842;2023-05-10T01:40:40;14.54;118.99
66035;HTU21D;52805;51.074;5.842;2023-05-10T01:43:13;14.53;118.99
66035;HTU21D;52805;51.074;5.842;2023-05-10T01:48:26;14.54;118.99
66035;HTU21D;52805;51.074;5.842;2023-05-10T01:50:54;14.52;118.99
66035;HTU21D;52805;51.074;5.842;2023-05-10T01:53:22;14.53;118.99
66035;HTU21D;52805;51.074;5.842;2023-05-10T01:55:50;14.48;118.99
66035;HTU21D;52805;51.074;5.842;2023-05-10T01:58:28;14.44;118.99
66035;HTU21D;52805;51.074;5.842;2023-05-10T02:00:58;14.44;118.99
66035;HTU21D;52805;51.074;5.842;2023-05-10T02:03:28;14.42;118.99
66035;HTU21D;52805;51.074;5.842;2023-05-10T02:05:56;14.42;118.99
66035;HTU21D;52805;51.074;5.842;2023-05-10T02:08:24;14.42;118.99
66035;HTU21D;52805;51.074;5.842;2023-05-10T02:10:54;14.39;118.99
66035;HTU21D;52805;51.074;5.842;2023-05-10T02:13:23;14.36;118.99
66035;HTU21D;52805;51.074;5.842;2023-05-10T02:15:50;14.36;118.99
66035;HTU21D;52805;51.074;5.842;2023-05-10T02:18:18;14.34;118.99
66035;HTU21D;52805;51.074;5.842;2023-05-10T02:20:46;14.35;118.99
66035;HTU21D;52805;51.074;5.842;2023-05-10T02:23:13;14.32;118.99
66035;HTU21D;52805;51.074;5.842;2023-05-10T02:25:43;14.32;118.99
66035;HTU21D;52805;51.074;5.842;2023-05-10T02:28:11;14.28;118.99
66035;HTU21D;52805;51.074;5.842;2023-05-10T02:30:39;14.25;118.99
66035;HTU21D;52805;51.074;5.842;2023-05-10T02:33:06;14.28;118.99
66035;HTU21D;52805;51.074;5.842;2023-05-10T02:35:34;14.25;118.99
66035;HTU21D;52805;51.074;5.842;2023-05-10T02:38:03;14.23;118.99
66035;HTU21D;52805;51.074;5.842;2023-05-10T02:40:30;14.22;118.99
66035;HTU21D;52805;51.074;5.842;2023-05-10T02:42:56;14.19;118.99
66035;HTU21D;52805;51.074;5.842;2023-05-10T02:45:27;14.14;118.99
66035;HTU21D;52805;51.074;5.842;2023-05-10T02:47:55;14.12;118.99
66035;HTU21D;52805;51.074;5.842;2023-05-10T02:50:22;14.06;118.99
66035;HTU21D;52805;51.074;5.842;2023-05-10T02:52:57;14.05;118.99
66035;HTU21D;52805;51.074;5.842;2023-05-10T02:55:31;14.00;118.99
66035;HTU21D;52805;51.074;5.842;2023-05-10T02:58:02;13.96;118.99
66035;HTU21D;52805;51.074;5.842;2023-05-10T03:00:28;13.97;118.99
66035;HTU21D;52805;51.074;5.842;2023-05-10T03:02:54;13.95;118.99
66035;HTU21D;52805;51.074;5.842;2023-05-10T03:05:20;13.95;118.99
66035;HTU21D;52805;51.074;5.842;2023-05-10T03:07:47;13.93;118.99
66035;HTU21D;52805;51.074;5.842;2023-05-10T03:10:13;13.91;118.99
66035;HTU21D;52805;51.074;5.842;2023-05-10T03:18:33;13.89;118.99
66035;HTU21D;52805;51.074;5.842;2023-05-10T03:21:07;13.88;118.99
66035;HTU21D;52805;51.074;5.842;2023-05-10T03:23:51;13.88;118.99
66035;HTU21D;52805;51.074;5.842;2023-05-10T03:26:26;13.90;118.99
66035;HTU21D;52805;51.074;5.842;2023-05-10T03:29:00;13.86;118.99
66035;HTU21D;52805;51.074;5.842;2023-05-10T03:31:27;13.83;118.99
66035;HTU21D;52805;51.074;5.842;2023-05-10T03:33:53;13.79;118.99
66035;HTU21D;52805;51.074;5.842;2023-05-10T03:36:25;13.77;118.99
66035;HTU21D;52805;51.074;5.842;2023-05-10T03:38:51;13.75;118.99
66035;HTU21D;52805;51.074;5.842;2023-05-10T03:41:17;13.77;118.99
66035;HTU21D;52805;51.074;5.842;2023-05-10T03:43:42;13.80;118.99
66035;HTU21D;52805;51.074;5.842;2023-05-10T03:46:08;13.82;118.99
66035;HTU21D;52805;51.074;5.842;2023-05-10T03:48:34;13.85;118.99
66035;HTU21D;52805;51.074;5.842;2023-05-10T03:51:00;13.85;118.99
66035;HTU21D;52805;51.074;5.842;2023-05-10T03:53:25;13.89;118.99
66035;HTU21D;52805;51.074;5.842;2023-05-10T03:55:52;13.92;118.99
66035;HTU21D;52805;51.074;5.842;2023-05-10T03:58:17;13.90;118.99
66035;HTU21D;52805;51.074;5.842;2023-05-10T04:00:44;13.92;118.99
66035;HTU21D;52805;51.074;5.842;2023-05-10T04:03:12;13.94;118.99
66035;HTU21D;52805;51.074;5.842;2023-05-10T04:05:38;13.94;118.99
66035;HTU21D;52805;51.074;5.842;2023-05-10T04:08:05;13.89;118.99
66035;HTU21D;52805;51.074;5.842;2023-05-10T04:10:31;13.85;118.99
66035;HTU21D;52805;51.074;5.842;2023-05-10T04:12:57;13.86;118.99
66035;HTU21D;52805;51.074;5.842;2023-05-10T04:15:23;13.88;118.99
66035;HTU21D;52805;51.074;5.842;2023-05-10T04:17:49;13.88;118.99
66035;HTU21D;52805;51.074;5.842;2023-05-10T04:20:16;13.85;118.99
66035;HTU21D;52805;51.074;5.842;2023-05-10T04:22:41;13.91;118.99
66035;HTU21D;52805;51.074;5.842;2023-05-10T04:25:08;13.90;118.99
66035;HTU21D;52805;51.074;5.842;2023-05-10T04:27:33;13.93;118.99
66035;HTU21D;52805;51.074;5.842;2023-05-10T04:29:59;13.95;118.99
66035;HTU21D;52805;51.074;5.842;2023-05-10T04:32:25;13.96;118.99
66035;HTU21D;52805;51.074;5.842;2023-05-10T04:34:51;13.96;118.99
66035;HTU21D;52805;51.074;5.842;2023-05-10T04:37:17;13.97;118.99
66035;HTU21D;52805;51.074;5.842;2023-05-10T04:39:43;13.97;118.99
66035;HTU21D;52805;51.074;5.842;2023-05-10T04:42:09;13.98;118.99
66035;HTU21D;52805;51.074;5.842;2023-05-10T04:44:35;14.01;118.99
66035;HTU21D;52805;51.074;5.842;2023-05-10T04:47:01;14.03;118.99
66035;HTU21D;52805;51.074;5.842;2023-05-10T04:49:29;14.05;118.99
66035;HTU21D;52805;51.074;5.842;2023-05-10T04:51:55;14.04;118.99
66035;HTU21D;52805;51.074;5.842;2023-05-10T04:54:21;14.06;118.99
66035;HTU21D;52805;51.074;5.842;2023-05-10T04:56:47;14.06;118.99
66035;HTU21D;52805;51.074;5.842;2023-05-10T04:59:15;14.05;118.99
66035;HTU21D;52805;51.074;5.842;2023-05-10T05:01:41;14.04;118.99
66035;HTU21D;52805;51.074;5.842;2023-05-10T05:04:06;14.05;118.99
66035;HTU21D;52805;51.074;5.842;2023-05-10T05:06:32;14.07;118.99
66035;HTU21D;52805;51.074;5.842;2023-05-10T05:08:58;14.08;118.99
66035;HTU21D;52805;51.074;5.842;2023-05-10T05:11:23;14.07;118.99
66035;HTU21D;52805;51.074;5.842;2023-05-10T05:13:50;14.06;118.99
66035;HTU21D;52805;51.074;5.842;2023-05-10T05:16:17;14.00;118.99
66035;HTU21D;52805;51.074;5.842;2023-05-10T05:18:42;14.01;118.99
66035;HTU21D;52805;51.074;5.842;2023-05-10T05:21:18;14.04;118.99
66035;HTU21D;52805;51.074;5.842;2023-05-10T05:23:45;14.07;118.99
66035;HTU21D;52805;51.074;5.842;2023-05-10T05:26:11;14.06;118.99
66035;HTU21D;52805;51.074;5.842;2023-05-10T05:28:37;14.05;118.99
66035;HTU21D;52805;51.074;5.842;2023-05-10T05:31:04;14.05;118.99
66035;HTU21D;52805;51.074;5.842;2023-05-10T05:33:31;14.06;118.99
66035;HTU21D;52805;51.074;5.842;2023-05-10T05:35:56;14.05;118.99
66035;HTU21D;52805;51.074;5.842;2023-05-10T05:38:22;14.10;118.99
66035;HTU21D;52805;51.074;5.842;2023-05-10T05:40:49;14.10;118.99
66035;HTU21D;52805;51.074;5.842;2023-05-10T05:43:14;14.10;118.99
66035;HTU21D;52805;51.074;5.842;2023-05-10T05:45:40;14.12;118.99
66035;HTU21D;52805;51.074;5.842;2023-05-10T05:48:06;14.11;118.99
66035;HTU21D;52805;51.074;5.842;2023-05-10T05:50:31;14.12;118.99
66035;HTU21D;52805;51.074;5.842;2023-05-10T05:52:57;14.12;118.99
66035;HTU21D;52805;51.074;5.842;2023-05-10T05:55:23;14.13;118.99
66035;HTU21D;52805;51.074;5.842;2023-05-10T05:57:49;14.15;118.99
66035;HTU21D;52805;51.074;5.842;2023-05-10T06:00:15;14.15;118.99
66035;HTU21D;52805;51.074;5.842;2023-05-10T06:02:41;14.18;118.99
66035;HTU21D;52805;51.074;5.842;2023-05-10T06:05:07;14.21;118.99
66035;HTU21D;52805;51.074;5.842;2023-05-10T06:07:33;14.21;118.99
66035;HTU21D;52805;51.074;5.842;2023-05-10T06:09:59;14.25;118.99
66035;HTU21D;52805;51.074;5.842;2023-05-10T06:12:24;14.27;118.99
66035;HTU21D;52805;51.074;5.842;2023-05-10T06:14:50;14.35;118.99
66035;HTU21D;52805;51.074;5.842;2023-05-10T06:17:16;14.41;118.99
66035;HTU21D;52805;51.074;5.842;2023-05-10T06:19:42;14.50;118.99
66035;HTU21D;52805;51.074;5.842;2023-05-10T06:22:07;14.59;118.99
66035;HTU21D;52805;51.074;5.842;2023-05-10T06:24:33;14.70;118.99
66035;HTU21D;52805;51.074;5.842;2023-05-10T06:26:58;14.86;118.99
66035;HTU21D;52805;51.074;5.842;2023-05-10T06:29:26;15.04;118.99
66035;HTU21D;52805;51.074;5.842;2023-05-10T06:31:51;15.25;118.99
66035;HTU21D;52805;51.074;5.842;2023-05-10T06:34:17;15.39;118.99
66035;HTU21D;52805;51.074;5.842;2023-05-10T06:36:45;15.51;118.99
66035;HTU21D;52805;51.074;5.842;2023-05-10T06:39:11;15.61;118.99
66035;HTU21D;52805;51.074;5.842;2023-05-10T06:41:37;15.69;118.99
66035;HTU21D;52805;51.074;5.842;2023-05-10T06:44:03;15.76;118.99
66035;HTU21D;52805;51.074;5.842;2023-05-10T06:46:29;15.82;118.99
66035;HTU21D;52805;51.074;5.842;2023-05-10T06:48:58;15.86;118.99
66035;HTU21D;52805;51.074;5.842;2023-05-10T06:51:23;15.88;118.99
66035;HTU21D;52805;51.074;5.842;2023-05-10T06:53:49;15.89;118.99
66035;HTU21D;52805;51.074;5.842;2023-05-10T06:56:15;15.92;118.99
66035;HTU21D;52805;51.074;5.842;2023-05-10T06:58:40;15.96;118.99
66035;HTU21D;52805;51.074;5.842;2023-05-10T07:01:06;16.01;118.99
66035;HTU21D;52805;51.074;5.842;2023-05-10T07:03:32;16.02;118.99
66035;HTU21D;52805;51.074;5.842;2023-05-10T07:06:04;16.06;118.99
66035;HTU21D;52805;51.074;5.842;2023-05-10T07:08:31;16.12;118.99
66035;HTU21D;52805;51.074;5.842;2023-05-10T07:11:04;16.17;118.99
66035;HTU21D;52805;51.074;5.842;2023-05-10T07:13:31;16.20;118.99
66035;HTU21D;52805;51.074;5.842;2023-05-10T07:15:58;16.27;118.99
66035;HTU21D;52805;51.074;5.842;2023-05-10T07:18:24;16.15;118.99
66035;HTU21D;52805;51.074;5.842;2023-05-10T07:20:50;16.11;118.99
66035;HTU21D;52805;51.074;5.842;2023-05-10T07:23:16;16.05;118.99
66035;HTU21D;52805;51.074;5.842;2023-05-10T07:25:49;16.06;118.99
66035;HTU21D;52805;51.074;5.842;2023-05-10T07:28:16;15.96;118.99
66035;HTU21D;52805;51.074;5.842;2023-05-10T07:30:42;15.85;118.99
66035;HTU21D;52805;51.074;5.842;2023-05-10T07:33:10;15.80;118.99
66035;HTU21D;52805;51.074;5.842;2023-05-10T07:35:36;15.70;118.99
66035;HTU21D;52805;51.074;5.842;2023-05-10T07:38:02;15.63;118.99
66035;HTU21D;52805;51.074;5.842;2023-05-10T07:40:28;15.53;118.99
66035;HTU21D;52805;51.074;5.842;2023-05-10T07:42:54;15.46;118.99
66035;HTU21D;52805;51.074;5.842;2023-05-10T07:45:20;15.37;118.99
66035;HTU21D;52805;51.074;5.842;2023-05-10T07:47:45;15.37;118.99
66035;HTU21D;52805;51.074;5.842;2023-05-10T07:50:11;15.30;118.99
66035;HTU21D;52805;51.074;5.842;2023-05-10T07:52:37;15.33;118.99
66035;HTU21D;52805;51.074;5.842;2023-05-10T07:55:03;15.27;118.99
66035;HTU21D;52805;51.074;5.842;2023-05-10T07:57:28;15.19;118.99
66035;HTU21D;52805;51.074;5.842;2023-05-10T07:59:54;15.26;118.99
66035;HTU21D;52805;51.074;5.842;2023-05-10T08:02:20;15.29;118.99
66035;HTU21D;52805;51.074;5.842;2023-05-10T08:04:45;15.32;118.99
66035;HTU21D;52805;51.074;5.842;2023-05-10T08:07:11;15.34;118.99
66035;HTU21D;52805;51.074;5.842;2023-05-10T08:09:37;15.30;118.99
66035;HTU21D;52805;51.074;5.842;2023-05-10T08:12:03;15.25;118.99
66035;HTU21D;52805;51.074;5.842;2023-05-10T08:14:29;15.22;118.99
66035;HTU21D;52805;51.074;5.842;2023-05-10T08:16:55;15.19;118.99
66035;HTU21D;52805;51.074;5.842;2023-05-10T08:19:21;15.12;118.99
66035;HTU21D;52805;51.074;5.842;2023-05-10T08:21:48;15.13;118.99
66035;HTU21D;52805;51.074;5.842;2023-05-10T08:24:14;15.08;118.99
66035;HTU21D;52805;51.074;5.842;2023-05-10T08:26:40;15.09;118.99
66035;HTU21D;52805;51.074;5.842;2023-05-10T08:29:06;15.09;118.99
66035;HTU21D;52805;51.074;5.842;2023-05-10T08:31:31;15.07;118.99
66035;HTU21D;52805;51.074;5.842;2023-05-10T08:33:57;15.01;118.99
66035;HTU21D;52805;51.074;5.842;2023-05-10T08:36:23;14.99;118.99
66035;HTU21D;52805;51.074;5.842;2023-05-10T08:38:53;15.07;118.99
66035;HTU21D;52805;51.074;5.842;2023-05-10T08:41:23;15.14;118.99
66035;HTU21D;52805;51.074;5.842;2023-05-10T08:43:53;15.18;118.99
66035;HTU21D;52805;51.074;5.842;2023-05-10T08:46:21;15.22;118.99
66035;HTU21D;52805;51.074;5.842;2023-05-10T08:48:48;15.31;118.99
66035;HTU21D;52805;51.074;5.842;2023-05-10T08:51:18;15.39;118.99
66035;HTU21D;52805;51.074;5.842;2023-05-10T08:53:44;15.53;118.99
66035;HTU21D;52805;51.074;5.842;2023-05-10T08:56:11;15.60;118.99
66035;HTU21D;52805;51.074;5.842;2023-05-10T08:58:37;15.69;118.99
66035;HTU21D;52805;51.074;5.842;2023-05-10T09:01:04;15.81;118.99
66035;HTU21D;52805;51.074;5.842;2023-05-10T09:03:31;15.89;118.99
66035;HTU21D;52805;51.074;5.842;2023-05-10T09:05:58;15.97;118.99
66035;HTU21D;52805;51.074;5.842;2023-05-10T09:08:24;16.08;118.99
66035;HTU21D;52805;51.074;5.842;2023-05-10T09:10:55;16.15;118.99
66035;HTU21D;52805;51.074;5.842;2023-05-10T09:13:22;16.24;118.99
66035;HTU21D;52805;51.074;5.842;2023-05-10T09:15:48;16.32;118.99
66035;HTU21D;52805;51.074;5.842;2023-05-10T09:18:14;16.46;118.99
66035;HTU21D;52805;51.074;5.842;2023-05-10T09:20:40;16.57;118.99
66035;HTU21D;52805;51.074;5.842;2023-05-10T09:23:06;16.59;118.99
66035;HTU21D;52805;51.074;5.842;2023-05-10T09:25:32;16.57;118.99
66035;HTU21D;52805;51.074;5.842;2023-05-10T09:27:59;16.65;118.99
66035;HTU21D;52805;51.074;5.842;2023-05-10T09:30:30;16.72;118.99
66035;HTU21D;52805;51.074;5.842;2023-05-10T09:32:57;16.74;118.99
66035;HTU21D;52805;51.074;5.842;2023-05-10T09:35:25;16.79;118.99
66035;HTU21D;52805;51.074;5.842;2023-05-10T09:37:54;16.82;118.99
66035;HTU21D;52805;51.074;5.842;2023-05-10T09:40:25;16.87;118.99
66035;HTU21D;52805;51.074;5.842;2023-05-10T09:42:59;16.99;118.99
66035;HTU21D;52805;51.074;5.842;2023-05-10T09:45:30;17.09;118.99
66035;HTU21D;52805;51.074;5.842;2023-05-10T09:47:57;17.16;118.99
66035;HTU21D;52805;51.074;5.842;2023-05-10T09:50:25;17.24;118.99
66035;HTU21D;52805;51.074;5.842;2023-05-10T09:52:54;17.35;118.99
66035;HTU21D;52805;51.074;5.842;2023-05-10T09:55:23;17.31;118.99
66035;HTU21D;52805;51.074;5.842;2023-05-10T09:57:59;17.35;118.99
66035;HTU21D;52805;51.074;5.842;2023-05-10T10:00:26;17.37;118.99
66035;HTU21D;52805;51.074;5.842;2023-05-10T10:02:57;17.45;118.99
66035;HTU21D;52805;51.074;5.842;2023-05-10T10:05:33;17.49;118.99
66035;HTU21D;52805;51.074;5.842;2023-05-10T10:08:02;17.50;118.99
66035;HTU21D;52805;51.074;5.842;2023-05-10T10:10:28;17.49;118.99
66035;HTU21D;52805;51.074;5.842;2023-05-10T10:12:55;17.45;118.99
66035;HTU21D;52805;51.074;5.842;2023-05-10T10:15:22;17.34;118.99
66035;HTU21D;52805;51.074;5.842;2023-05-10T10:17:49;17.31;118.99
66035;HTU21D;52805;51.074;5.842;2023-05-10T10:20:17;17.29;118.99
66035;HTU21D;52805;51.074;5.842;2023-05-10T10:22:43;17.23;118.99
66035;HTU21D;52805;51.074;5.842;2023-05-10T10:25:11;17.23;118.99
66035;HTU21D;52805;51.074;5.842;2023-05-10T10:30:43;17.37;118.99
66035;HTU21D;52805;51.074;5.842;2023-05-10T10:36:04;17.51;118.99
66035;HTU21D;52805;51.074;5.842;2023-05-10T10:38:57;17.52;118.99
66035;HTU21D;52805;51.074;5.842;2023-05-10T10:41:29;17.62;118.99
66035;HTU21D;52805;51.074;5.842;2023-05-10T10:47:01;17.77;118.99
66035;HTU21D;52805;51.074;5.842;2023-05-10T10:49:30;17.87;118.99
66035;HTU21D;52805;51.074;5.842;2023-05-10T10:52:22;18.08;118.99
66035;HTU21D;52805;51.074;5.842;2023-05-10T10:54:52;18.24;118.99
66035;HTU21D;52805;51.074;5.842;2023-05-10T10:57:19;18.35;118.99
66035;HTU21D;52805;51.074;5.842;2023-05-10T10:59:47;18.41;118.99
66035;HTU21D;52805;51.074;5.842;2023-05-10T11:02:33;18.44;118.99
66035;HTU21D;52805;51.074;5.842;2023-05-10T11:04:59;18.42;118.99
66035;HTU21D;52805;51.074;5.842;2023-05-10T11:07:26;18.42;118.99
66035;HTU21D;52805;51.074;5.842;2023-05-10T11:09:52;18.48;118.99
66035;HTU21D;52805;51.074;5.842;2023-05-10T11:12:17;18.54;118.99
66035;HTU21D;52805;51.074;5.842;2023-05-10T11:14:43;18.62;118.99
66035;HTU21D;52805;51.074;5.842;2023-05-10T11:17:27;18.70;118.99
66035;HTU21D;52805;51.074;5.842;2023-05-10T11:20:10;18.73;118.99
66035;HTU21D;52805;51.074;5.842;2023-05-10T11:22:53;18.85;118.99
66035;HTU21D;52805;51.074;5.842;2023-05-10T11:25:19;18.89;118.99
66035;HTU21D;52805;51.074;5.842;2023-05-10T11:27:48;18.91;118.99
66035;HTU21D;52805;51.074;5.842;2023-05-10T11:30:14;18.91;118.99
66035;HTU21D;52805;51.074;5.842;2023-05-10T11:32:40;18.85;118.99
66035;HTU21D;52805;51.074;5.842;2023-05-10T11:35:07;18.83;118.99
66035;HTU21D;52805;51.074;5.842;2023-05-10T11:37:33;18.81;118.99
66035;HTU21D;52805;51.074;5.842;2023-05-10T11:39:59;18.76;118.99
66035;HTU21D;52805;51.074;5.842;2023-05-10T11:42:27;18.74;118.99
66035;HTU21D;52805;51.074;5.842;2023-05-10T11:44:53;18.62;118.99
66035;HTU21D;52805;51.074;5.842;2023-05-10T11:47:19;18.61;118.99
66035;HTU21D;52805;51.074;5.842;2023-05-10T11:49:46;18.64;118.99
66035;HTU21D;52805;51.074;5.842;2023-05-10T11:52:12;18.70;118.99
66035;HTU21D;52805;51.074;5.842;2023-05-10T11:54:37;18.73;118.99
66035;HTU21D;52805;51.074;5.842;2023-05-10T11:57:09;18.82;118.99
66035;HTU21D;52805;51.074;5.842;2023-05-10T11:59:36;18.94;118.99
66035;HTU21D;52805;51.074;5.842;2023-05-10T12:02:02;19.13;118.99
66035;HTU21D;52805;51.074;5.842;2023-05-10T12:04:28;19.31;118.99
66035;HTU21D;52805;51.074;5.842;2023-05-10T12:06:55;19.46;118.99
66035;HTU21D;52805;51.074;5.842;2023-05-10T12:09:21;19.47;118.99
66035;HTU21D;52805;51.074;5.842;2023-05-10T12:11:47;19.39;118.99
66035;HTU21D;52805;51.074;5.842;2023-05-10T12:14:12;19.22;118.99
66035;HTU21D;52805;51.074;5.842;2023-05-10T12:16:38;19.13;118.99
66035;HTU21D;52805;51.074;5.842;2023-05-10T12:19:04;19.08;118.99
66035;HTU21D;52805;51.074;5.842;2023-05-10T12:21:30;19.06;118.99
66035;HTU21D;52805;51.074;5.842;2023-05-10T12:24:02;19.07;118.99
66035;HTU21D;52805;51.074;5.842;2023-05-10T12:26:28;19.14;118.99
66035;HTU21D;52805;51.074;5.842;2023-05-10T12:29:00;19.23;118.99
66035;HTU21D;52805;51.074;5.842;2023-05-10T12:31:49;19.26;118.99
66035;HTU21D;52805;51.074;5.842;2023-05-10T12:36:53;19.28;118.99
66035;HTU21D;52805;51.074;5.842;2023-05-10T12:39:18;19.24;118.99
66035;HTU21D;52805;51.074;5.842;2023-05-10T12:41:44;19.12;118.99
66035;HTU21D;52805;51.074;5.842;2023-05-10T12:44:10;19.16;118.99
66035;HTU21D;52805;51.074;5.842;2023-05-10T12:46:36;19.21;118.99
66035;HTU21D;52805;51.074;5.842;2023-05-10T12:49:01;19.31;118.99
66035;HTU21D;52805;51.074;5.842;2023-05-10T12:51:27;19.28;118.99
66035;HTU21D;52805;51.074;5.842;2023-05-10T12:53:52;19.33;118.99
66035;HTU21D;52805;51.074;5.842;2023-05-10T12:56:19;19.37;118.99
66035;HTU21D;52805;51.074;5.842;2023-05-10T12:58:46;19.38;118.99
66035;HTU21D;52805;51.074;5.842;2023-05-10T13:01:14;19.47;118.99
66035;HTU21D;52805;51.074;5.842;2023-05-10T13:03:40;19.63;118.99
66035;HTU21D;52805;51.074;5.842;2023-05-10T13:06:05;19.66;118.99
66035;HTU21D;52805;51.074;5.842;2023-05-10T13:08:32;19.75;118.99
66035;HTU21D;52805;51.074;5.842;2023-05-10T13:11:02;19.83;118.99
66035;HTU21D;52805;51.074;5.842;2023-05-10T13:13:28;19.95;118.99
66035;HTU21D;52805;51.074;5.842;2023-05-10T13:15:54;20.01;118.99
66035;HTU21D;52805;51.074;5.842;2023-05-10T13:18:19;20.15;118.99
66035;HTU21D;52805;51.074;5.842;2023-05-10T13:20:45;20.28;118.99
66035;HTU21D;52805;51.074;5.842;2023-05-10T13:23:11;20.42;118.99
66035;HTU21D;52805;51.074;5.842;2023-05-10T13:25:37;20.58;118.99
66035;HTU21D;52805;51.074;5.842;2023-05-10T13:28:03;20.69;118.99
66035;HTU21D;52805;51.074;5.842;2023-05-10T13:30:28;20.74;118.99
66035;HTU21D;52805;51.074;5.842;2023-05-10T13:32:54;20.69;118.99
66035;HTU21D;52805;51.074;5.842;2023-05-10T13:35:20;20.69;118.99
66035;HTU21D;52805;51.074;5.842;2023-05-10T13:37:46;20.63;118.99
66035;HTU21D;52805;51.074;5.842;2023-05-10T13:40:12;20.60;118.99
66035;HTU21D;52805;51.074;5.842;2023-05-10T13:42:38;20.55;118.99
66035;HTU21D;52805;51.074;5.842;2023-05-10T13:45:05;20.46;118.99
66035;HTU21D;52805;51.074;5.842;2023-05-10T13:47:31;20.33;118.99
66035;HTU21D;52805;51.074;5.842;2023-05-10T13:49:57;20.33;118.99
66035;HTU21D;52805;51.074;5.842;2023-05-10T13:52:23;20.28;118.99
66035;HTU21D;52805;51.074;5.842;2023-05-10T13:54:48;20.27;118.99
66035;HTU21D;52805;51.074;5.842;2023-05-10T13:57:14;20.17;118.99
66035;HTU21D;52805;51.074;5.842;2023-05-10T13:59:42;20.17;118.99
66035;HTU21D;52805;51.074;5.842;2023-05-10T14:02:07;20.18;118.99
66035;HTU21D;52805;51.074;5.842;2023-05-10T14:04:33;20.18;118.99
66035;HTU21D;52805;51.074;5.842;2023-05-10T14:07:00;20.17;118.99
66035;HTU21D;52805;51.074;5.842;2023-05-10T14:09:27;20.14;118.99
66035;HTU21D;52805;51.074;5.842;2023-05-10T14:11:52;20.17;118.99
66035;HTU21D;52805;51.074;5.842;2023-05-10T14:14:18;20.15;118.99
66035;HTU21D;52805;51.074;5.842;2023-05-10T14:16:44;20.09;118.99
66035;HTU21D;52805;51.074;5.842;2023-05-10T14:19:10;20.04;118.99
66035;HTU21D;52805;51.074;5.842;2023-05-10T14:21:36;19.96;118.99
66035;HTU21D;52805;51.074;5.842;2023-05-10T14:24:02;19.77;118.99
66035;HTU21D;52805;51.074;5.842;2023-05-10T14:26:28;19.67;118.99
66035;HTU21D;52805;51.074;5.842;2023-05-10T14:28:54;19.69;118.99
66035;HTU21D;52805;51.074;5.842;2023-05-10T14:31:19;19.74;118.99
66035;HTU21D;52805;51.074;5.842;2023-05-10T14:33:48;19.77;118.99
66035;HTU21D;52805;51.074;5.842;2023-05-10T14:36:14;19.79;118.99
66035;HTU21D;52805;51.074;5.842;2023-05-10T14:38:40;19.84;118.99
66035;HTU21D;52805;51.074;5.842;2023-05-10T14:41:06;19.95;118.99
66035;HTU21D;52805;51.074;5.842;2023-05-10T14:43:32;20.09;118.99
66035;HTU21D;52805;51.074;5.842;2023-05-10T14:45:58;20.27;118.99
66035;HTU21D;52805;51.074;5.842;2023-05-10T14:48:24;20.63;118.99
66035;HTU21D;52805;51.074;5.842;2023-05-10T14:50:50;20.99;118.99
66035;HTU21D;52805;51.074;5.842;2023-05-10T14:53:16;21.20;118.99
66035;HTU21D;52805;51.074;5.842;2023-05-10T14:55:41;21.16;118.99
66035;HTU21D;52805;51.074;5.842;2023-05-10T14:58:07;21.06;118.99
66035;HTU21D;52805;51.074;5.842;2023-05-10T15:00:33;21.02;118.99
66035;HTU21D;52805;51.074;5.842;2023-05-10T15:02:58;20.93;118.99
66035;HTU21D;52805;51.074;5.842;2023-05-10T15:05:24;20.84;118.99
66035;HTU21D;52805;51.074;5.842;2023-05-10T15:07:50;20.72;118.99
66035;HTU21D;52805;51.074;5.842;2023-05-10T15:10:16;20.74;118.99
66035;HTU21D;52805;51.074;5.842;2023-05-10T15:12:42;20.85;118.99
66035;HTU21D;52805;51.074;5.842;2023-05-10T15:15:07;20.88;118.99
66035;HTU21D;52805;51.074;5.842;2023-05-10T15:17:33;20.86;118.99
66035;HTU21D;52805;51.074;5.842;2023-05-10T15:19:59;20.87;118.99
66035;HTU21D;52805;51.074;5.842;2023-05-10T15:22:25;20.80;118.99
66035;HTU21D;52805;51.074;5.842;2023-05-10T15:24:53;20.83;118.99
66035;HTU21D;52805;51.074;5.842;2023-05-10T15:27:19;20.94;118.99
66035;HTU21D;52805;51.074;5.842;2023-05-10T15:29:45;21.05;118.99
66035;HTU21D;52805;51.074;5.842;2023-05-10T15:32:10;21.09;118.99
66035;HTU21D;52805;51.074;5.842;2023-05-10T15:34:36;21.05;118.99
66035;HTU21D;52805;51.074;5.842;2023-05-10T15:37:02;21.00;118.99